Time;durP1;ratioP1;P1;durP2;ratioP2;P2;SDS_P1;SDS_P2;PMS_P1;PMS_P2;Temp;Humidity;BMP_temperature;BMP_pressure;BME280_temperature;BME280_humidity;BME280_pressure;Samples;Min_cycle;Max_cycle;Signal;HPM_P1;HPM_P2
2023/01/18 00:00:28;;;;;;;0.80;0.55;;;;;;;;;;10478627;28;19935;-74
2023/01/18 00:05:38;;;;;;;1.60;1.30;;;;;;;;;;10480508;28;22005;-74
2023/01/18 00:10:45;;;;;;;1.70;1.10;;;;;;;;;;10475030;28;20052;-75
2023/01/18 00:15:48;;;;;;;;;;;;;;;;;;10486976;28;20044;-75
2023/01/18 00:21:07;;;;;;;4.77;1.00;;;;;;;;;;10479879;28;19920;-74
2023/01/18 00:26:12;;;;;;;1.63;0.97;;;;;;;;;;10480390;28;20041;-74
2023/01/18 00:31:16;;;;;;;;;;;;;;;;;;10477826;28;20051;-75
2023/01/18 00:36:28;;;;;;;3.43;1.30;;;;;;;;;;10480970;28;19935;-73
2023/01/18 00:43:37;;;;;;;1.27;0.50;;;;;;;;;;10477642;28;20083;-75
2023/01/18 00:47:10;;;;;;;2.83;1.40;;;;;;;;;;10461349;28;20052;-75
2023/01/18 00:52:15;;;;;;;4.50;1.53;;;;;;;;;;10483067;28;20733;-74
2023/01/18 00:57:26;;;;;;;1.47;0.53;;;;;;;;;;10480788;28;20093;-74
2023/01/18 01:02:34;;;;;;;3.07;1.53;;;;;;;;;;10464230;28;20479;-74
2023/01/18 01:07:40;;;;;;;3.13;1.43;;;;;;;;;;10462680;28;20508;-74
2023/01/18 01:29:07;;;;;;;2.50;1.27;;;;;;;;;;10452833;28;20044;-74
2023/01/18 01:34:13;;;;;;;4.07;1.80;;;;;;;;;;10478736;28;20437;-75
2023/01/18 01:39:26;;;;;;;2.73;1.40;;;;;;;;;;10470541;28;20313;-75
2023/01/18 01:44:42;;;;;;;4.20;1.70;;;;;;;;;;10482153;28;20385;-74
2023/01/18 01:49:49;;;;;;;4.73;1.77;;;;;;;;;;10482191;28;20037;-75
2023/01/18 01:54:58;;;;;;;4.97;1.73;;;;;;;;;;10479932;28;20113;-77
2023/01/18 02:00:07;;;;;;;3.33;1.63;;;;;;;;;;10482127;28;20119;-77
2023/01/18 02:05:20;;;;;;;1.70;1.13;;;;;;;;;;10467387;28;20047;-74
2023/01/18 02:10:30;;;;;;;2.87;1.63;;;;;;;;;;10487395;28;20135;-75
2023/01/18 02:15:42;;;;;;;3.20;1.47;;;;;;;;;;10479288;28;20509;-74
2023/01/18 02:21:12;;;;;;;10.07;1.37;;;;;;;;;;10460844;28;20074;-74
2023/01/18 02:26:34;;;;;;;0.83;0.53;;;;;;;;;;10474840;28;20502;-73
2023/01/18 02:31:53;;;;;;;2.65;1.65;;;;;;;;;;10478975;28;20044;-73
2023/01/18 02:37:04;;;;;;;1.33;0.60;;;;;;;;;;10464232;28;20064;-74
2023/01/18 02:47:47;;;;;;;0.63;0.40;;;;;;;;;;10468021;28;20049;-74
2023/01/18 02:52:53;;;;;;;2.87;1.50;;;;;;;;;;10481308;28;20132;-73
2023/01/18 03:03:30;;;;;;;1.23;0.77;;;;;;;;;;10476525;28;20458;-74
2023/01/18 03:08:38;;;;;;;0.40;0.40;;;;;;;;;;10441448;28;20056;-74
2023/01/18 03:13:52;;;;;;;2.83;1.70;;;;;;;;;;10472690;28;20530;-74
2023/01/18 03:19:01;;;;;;;7.73;0.87;;;;;;;;;;10450836;28;20044;-74
2023/01/18 03:24:14;;;;;;;2.33;0.80;;;;;;;;;;10468738;28;20041;-75
2023/01/18 03:34:49;;;;;;;0.90;0.70;;;;;;;;;;10466864;28;20106;-74
2023/01/18 03:40:05;;;;;;;0.57;0.57;;;;;;;;;;10460107;28;20541;-74
2023/01/18 03:45:21;;;;;;;2.67;0.90;;;;;;;;;;10455119;28;20037;-74
2023/01/18 03:50:33;;;;;;;1.63;0.57;;;;;;;;;;10465858;28;20081;-75
2023/01/18 03:55:48;;;;;;;1.00;0.90;;;;;;;;;;10473785;28;20487;-75
2023/01/18 04:01:09;;;;;;;1.00;0.50;;;;;;;;;;10481287;28;20033;-74
2023/01/18 04:06:29;;;;;;;0.87;0.83;;;;;;;;;;10466071;28;20045;-74
2023/01/18 04:11:46;;;;;;;0.70;0.63;;;;;;;;;;10451339;28;20514;-74
2023/01/18 04:16:57;;;;;;;2.00;0.97;;;;;;;;;;10457471;28;20090;-74
2023/01/18 04:22:13;;;;;;;0.80;0.80;;;;;;;;;;10456518;28;20163;-74
2023/01/18 04:27:24;;;;;;;1.57;1.00;;;;;;;;;;10474388;28;20039;-75
2023/01/18 04:32:33;;;;;;;1.57;0.80;;;;;;;;;;10467035;28;20056;-74
2023/01/18 04:37:50;;;;;;;0.83;0.60;;;;;;;;;;10448425;28;20245;-74
2023/01/18 04:42:59;;;;;;;2.30;0.57;;;;;;;;;;10437248;28;20490;-74
2023/01/18 04:48:05;;;;;;;0.60;0.50;;;;;;;;;;10468828;28;20466;-74
2023/01/18 04:53:18;;;;;;;1.30;1.03;;;;;;;;;;10443068;28;20036;-75
2023/01/18 04:58:22;;;;;;;1.43;0.60;;;;;;;;;;10453846;28;20494;-74
2023/01/18 05:03:27;;;;;;;0.90;0.60;;;;;;;;;;10465444;28;20040;-74
2023/01/18 05:08:31;;;;;;;0.50;0.47;;;;;;;;;;10475252;28;20353;-74
2023/01/18 05:13:38;;;;;;;1.63;1.00;;;;;;;;;;10475273;28;20039;-74
2023/01/18 05:18:53;;;;;;;1.47;0.60;;;;;;;;;;10464836;28;20419;-75
2023/01/18 05:24:01;;;;;;;2.07;0.87;;;;;;;;;;10457132;28;20113;-76
2023/01/18 05:29:07;;;;;;;1.90;0.90;;;;;;;;;;10460756;28;20045;-76
2023/01/18 05:34:15;;;;;;;2.03;0.80;;;;;;;;;;10469316;28;20111;-74
2023/01/18 05:39:29;;;;;;;1.37;0.70;;;;;;;;;;10457030;28;20081;-76
2023/01/18 05:44:36;;;;;;;2.03;1.10;;;;;;;;;;10484814;28;20061;-74
2023/01/18 05:49:43;;;;;;;3.70;1.33;;;;;;;;;;10463835;28;20067;-74
2023/01/18 05:54:57;;;;;;;1.43;0.97;;;;;;;;;;10467764;28;20044;-74
2023/01/18 06:00:05;;;;;;;1.30;0.97;;;;;;;;;;10453806;28;20120;-76
2023/01/18 06:05:14;;;;;;;2.13;1.00;;;;;;;;;;10472759;28;20529;-75
2023/01/18 06:10:21;;;;;;;1.70;1.07;;;;;;;;;;10474501;28;20295;-75
2023/01/18 06:15:26;;;;;;;1.73;1.10;;;;;;;;;;10471414;28;20061;-74
2023/01/18 06:20:32;;;;;;;4.07;1.13;;;;;;;;;;10476611;28;20048;-75
2023/01/18 06:25:40;;;;;;;1.93;1.00;;;;;;;;;;10453153;28;20048;-74
2023/01/18 06:30:46;;;;;;;3.13;1.20;;;;;;;;;;10477768;28;20044;-75
2023/01/18 06:36:00;;;;;;;3.87;1.63;;;;;;;;;;10469518;28;20127;-76
2023/01/18 06:41:15;;;;;;;1.83;0.93;;;;;;;;;;10467082;28;20119;-75
2023/01/18 06:46:29;;;;;;;1.57;1.00;;;;;;;;;;10455958;28;20047;-74
2023/01/18 06:51:39;;;;;;;2.23;1.30;;;;;;;;;;10463414;28;20346;-74
2023/01/18 06:56:47;;;;;;;1.70;0.77;;;;;;;;;;10472924;28;20044;-77
2023/01/18 07:01:53;;;;;;;3.90;1.30;;;;;;;;;;10461829;28;20122;-74
2023/01/18 07:07:12;;;;;;;1.33;1.10;;;;;;;;;;10456959;28;20044;-74
2023/01/18 07:12:32;;;;;;;3.07;1.50;;;;;;;;;;10469637;28;20064;-74
2023/01/18 07:17:37;;;;;;;3.50;1.43;;;;;;;;;;10453566;28;20076;-75
2023/01/18 07:22:41;;;;;;;1.70;1.00;;;;;;;;;;10452497;28;20048;-74
2023/01/18 07:27:52;;;;;;;4.55;1.40;;;;;;;;;;10469545;28;20534;-76
2023/01/18 07:32:59;;;;;;;0.57;0.40;;;;;;;;;;10455460;28;20165;-75
2023/01/18 07:38:04;;;;;;;1.27;0.93;;;;;;;;;;10469199;28;20045;-75
2023/01/18 07:43:10;;;;;;;2.80;1.00;;;;;;;;;;10474053;28;20444;-75
2023/01/18 07:48:14;;;;;;;1.53;0.83;;;;;;;;;;10472417;28;20458;-74
2023/01/18 07:53:23;;;;;;;3.77;1.50;;;;;;;;;;10469036;28;20045;-74
2023/01/18 07:58:30;;;;;;;1.97;0.60;;;;;;;;;;10472882;28;20605;-74
2023/01/18 08:03:35;;;;;;;1.97;0.77;;;;;;;;;;10469536;28;20077;-74
2023/01/18 08:08:40;;;;;;;2.00;1.00;;;;;;;;;;10450287;28;20406;-75
2023/01/18 08:13:45;;;;;;;3.53;0.73;;;;;;;;;;10468116;28;20135;-75
2023/01/18 08:18:49;;;;;;;2.53;0.80;;;;;;;;;;10471198;28;20469;-75
2023/01/18 08:23:54;;;;;;;1.67;0.73;;;;;;;;;;10470978;28;20107;-75
2023/01/18 08:29:05;;;;;;;1.15;0.63;;;;;;;;;;10439706;28;20048;-75
2023/01/18 08:34:10;;;;;;;1.30;0.70;;;;;;;;;;10481363;28;20091;-75
2023/01/18 08:39:20;;;;;;;2.08;0.88;;;;;;;;;;10481314;28;20045;-75
2023/01/18 08:44:26;;;;;;;2.35;1.35;;;;;;;;;;10480941;28;20090;-75
2023/01/18 08:49:32;;;;;;;1.27;0.70;;;;;;;;;;10478069;28;20028;-75
2023/01/18 08:54:39;;;;;;;0.70;0.70;;;;;;;;;;10466724;28;20087;-74
2023/01/18 08:59:51;;;;;;;2.13;0.90;;;;;;;;;;10466690;28;20125;-75
2023/01/18 09:04:57;;;;;;;2.20;1.30;;;;;;;;;;10451290;28;20135;-75
2023/01/18 09:10:11;;;;;;;1.40;1.15;;;;;;;;;;10473940;28;20067;-75
2023/01/18 09:15:25;;;;;;;2.80;1.17;;;;;;;;;;10481032;28;20702;-75
2023/01/18 09:20:34;;;;;;;3.85;1.77;;;;;;;;;;10482665;28;20047;-75
2023/01/18 09:25:39;;;;;;;1.67;0.90;;;;;;;;;;10472082;28;20046;-75
2023/01/18 09:30:46;;;;;;;1.33;1.10;;;;;;;;;;10487672;28;20126;-76
2023/01/18 09:35:56;;;;;;;1.20;0.85;;;;;;;;;;10466188;28;20135;-76
2023/01/18 09:41:04;;;;;;;2.00;1.17;;;;;;;;;;10459251;28;20136;-76
2023/01/18 09:46:16;;;;;;;4.18;1.50;;;;;;;;;;10455060;28;20586;-75
2023/01/18 09:51:24;;;;;;;3.13;1.30;;;;;;;;;;10461796;28;20068;-75
2023/01/18 09:56:44;;;;;;;0.85;0.82;;;;;;;;;;10441785;28;20057;-76
2023/01/18 10:07:14;;;;;;;2.28;1.20;;;;;;;;;;10471096;28;20481;-76
2023/01/18 10:12:22;;;;;;;1.45;0.98;;;;;;;;;;10471313;28;20045;-75
2023/01/18 10:17:32;;;;;;;1.45;1.00;;;;;;;;;;10472948;28;20061;-75
2023/01/18 10:22:42;;;;;;;2.13;1.05;;;;;;;;;;10451841;28;20531;-74
2023/01/18 10:27:52;;;;;;;1.58;0.90;;;;;;;;;;10477519;28;20047;-75
2023/01/18 10:32:58;;;;;;;2.28;1.00;;;;;;;;;;10466491;28;20342;-75
2023/01/18 10:38:07;;;;;;;0.70;0.70;;;;;;;;;;10474643;28;20041;-75
2023/01/18 10:43:19;;;;;;;1.13;0.73;;;;;;;;;;10470871;28;20120;-74
2023/01/18 10:48:31;;;;;;;1.05;0.80;;;;;;;;;;10469896;28;20153;-74
2023/01/18 10:53:40;;;;;;;1.33;0.90;;;;;;;;;;10460955;28;20111;-73
2023/01/18 10:58:46;;;;;;;2.90;0.90;;;;;;;;;;10457309;28;20036;-74
2023/01/18 11:04:04;;;;;;;2.60;1.08;;;;;;;;;;10473916;28;20048;-74
2023/01/18 11:09:31;;;;;;;1.48;1.20;;;;;;;;;;10459239;28;20523;-74
2023/01/18 11:14:38;;;;;;;1.15;0.80;;;;;;;;;;10476723;28;20756;-73
2023/01/18 11:19:48;;;;;;;1.65;1.13;;;;;;;;;;10459435;28;20115;-75
2023/01/18 11:24:53;;;;;;;2.33;0.93;;;;;;;;;;10456399;28;20045;-74
2023/01/18 11:35:27;;;;;;;2.20;1.20;;;;;;;;;;10472820;28;20048;-74
2023/01/18 11:40:34;;;;;;;1.65;0.82;;;;;;;;;;10470563;28;20044;-75
2023/01/18 11:45:42;;;;;;;3.70;1.20;;;;;;;;;;10473461;28;20139;-75
2023/01/18 11:50:51;;;;;;;2.10;1.40;;;;;;;;;;10456791;28;20098;-75
2023/01/18 12:01:53;;;;;;;1.48;1.10;;;;;;;;;;10469767;28;20405;-77
2023/01/18 12:07:07;;;;;;;1.52;1.00;;;;;;;;;;10452691;28;20912;-78
2023/01/18 12:12:33;;;;;;;1.67;1.02;;;;;;;;;;10452312;28;20551;-75
2023/01/18 12:17:49;;;;;;;4.03;2.05;;;;;;;;;;10463327;28;20167;-74
2023/01/18 12:23:28;;;;;;;1.48;1.00;;;;;;;;;;10477007;28;20437;-75
2023/01/18 12:28:39;;;;;;;1.17;1.08;;;;;;;;;;10455946;28;20069;-76
2023/01/18 12:34:12;;;;;;;1.15;1.02;;;;;;;;;;10474828;28;20055;-74
2023/01/18 12:39:25;;;;;;;2.10;1.10;;;;;;;;;;10465752;28;20041;-77
2023/01/18 12:44:46;;;;;;;3.10;2.05;;;;;;;;;;10471737;28;20362;-75
2023/01/18 12:49:58;;;;;;;4.22;2.10;;;;;;;;;;10473975;28;20045;-74
2023/01/18 12:55:16;;;;;;;3.65;2.03;;;;;;;;;;10467033;28;20497;-76
2023/01/18 13:00:30;;;;;;;3.55;1.98;;;;;;;;;;10475018;28;20139;-76
2023/01/18 13:05:49;;;;;;;4.32;2.30;;;;;;;;;;10464167;28;20036;-75
2023/01/18 13:10:55;;;;;;;3.50;2.13;;;;;;;;;;10477949;28;20068;-74
2023/01/18 13:16:10;;;;;;;2.88;1.92;;;;;;;;;;10484676;28;20126;-76
2023/01/18 13:21:20;;;;;;;3.80;2.40;;;;;;;;;;10480734;28;20060;-76
2023/01/18 13:26:32;;;;;;;4.25;2.25;;;;;;;;;;10483938;28;20664;-75
2023/01/18 13:31:38;;;;;;;3.03;2.30;;;;;;;;;;10484996;28;20127;-75
2023/01/18 13:36:44;;;;;;;3.30;2.17;;;;;;;;;;10484357;28;20052;-77
2023/01/18 13:42:08;;;;;;;5.57;2.72;;;;;;;;;;10471603;28;20041;-76
2023/01/18 13:47:30;;;;;;;6.78;3.00;;;;;;;;;;10478218;28;20410;-75
2023/01/18 13:52:41;;;;;;;3.10;2.13;;;;;;;;;;10460303;28;20048;-77
2023/01/18 13:57:58;;;;;;;2.72;2.10;;;;;;;;;;10478910;28;20047;-75
2023/01/18 14:03:08;;;;;;;4.22;2.22;;;;;;;;;;10483807;28;20470;-75
2023/01/18 14:08:29;;;;;;;5.13;2.80;;;;;;;;;;10469753;28;20509;-76
2023/01/18 14:13:53;;;;;;;4.60;2.30;;;;;;;;;;10459828;28;20564;-75
2023/01/18 14:19:04;;;;;;;4.05;2.17;;;;;;;;;;10461504;28;20059;-76
2023/01/18 14:24:15;;;;;;;3.75;2.35;;;;;;;;;;10476261;28;20044;-75
2023/01/18 14:29:22;;;;;;;4.47;2.42;;;;;;;;;;10481205;28;20048;-75
2023/01/18 14:34:38;;;;;;;4.47;2.30;;;;;;;;;;10462233;28;20051;-76
2023/01/18 14:39:44;;;;;;;4.72;2.45;;;;;;;;;;10473223;28;20413;-76
2023/01/18 14:44:49;;;;;;;6.47;2.85;;;;;;;;;;10465661;28;20076;-76
2023/01/18 14:50:04;;;;;;;4.40;2.70;;;;;;;;;;10458207;28;20129;-77
2023/01/18 14:55:22;;;;;;;5.60;2.72;;;;;;;;;;10457183;28;20063;-75
2023/01/18 15:00:43;;;;;;;6.97;2.90;;;;;;;;;;10480480;28;20055;-76
2023/01/18 15:06:00;;;;;;;8.13;3.40;;;;;;;;;;10481375;28;20195;-77
2023/01/18 15:11:05;;;;;;;6.47;2.30;;;;;;;;;;10447359;28;20047;-76
2023/01/18 15:16:17;;;;;;;6.90;2.83;;;;;;;;;;10475950;28;20485;-75
2023/01/18 15:21:29;;;;;;;4.63;2.50;;;;;;;;;;10477454;28;20076;-75
2023/01/18 15:26:36;;;;;;;7.20;3.10;;;;;;;;;;10462599;28;20056;-76
2023/01/18 15:31:53;;;;;;;4.47;2.97;;;;;;;;;;10472997;28;20036;-75
2023/01/18 15:37:02;;;;;;;5.70;2.90;;;;;;;;;;10459455;28;20043;-74
2023/01/18 15:42:07;;;;;;;6.57;3.40;;;;;;;;;;10481901;28;20068;-76
2023/01/18 15:47:14;;;;;;;5.20;3.10;;;;;;;;;;10472746;28;20429;-76
2023/01/18 15:52:42;;;;;;;5.80;3.20;;;;;;;;;;10479304;28;20029;-76
2023/01/18 15:57:53;;;;;;;6.50;2.85;;;;;;;;;;10462729;28;20048;-77
2023/01/18 16:03:02;;;;;;;7.03;3.67;;;;;;;;;;10473121;28;20075;-77
2023/01/18 16:08:21;;;;;;;6.10;2.10;;;;;;;;;;10454279;28;20505;-77
2023/01/18 16:13:41;;;;;;;5.10;2.53;;;;;;;;;;10468495;28;20068;-77
2023/01/18 16:18:47;;;;;;;5.17;2.93;;;;;;;;;;10473111;28;20502;-75
2023/01/18 16:23:52;;;;;;;4.37;2.13;;;;;;;;;;10470491;28;20094;-77
2023/01/18 16:29:12;;;;;;;7.93;3.20;;;;;;;;;;10470366;28;20044;-76
2023/01/18 16:34:21;;;;;;;5.63;2.73;;;;;;;;;;10452820;28;20041;-76
2023/01/18 16:39:41;;;;;;;4.17;2.33;;;;;;;;;;10470270;28;20445;-76
2023/01/18 16:44:45;;;;;;;2.97;1.40;;;;;;;;;;10453840;28;20103;-75
2023/01/18 16:49:49;;;;;;;5.10;2.92;;;;;;;;;;10469736;28;20032;-75
2023/01/18 16:55:12;;;;;;;5.10;2.47;;;;;;;;;;10478956;28;20102;-75
2023/01/18 17:00:23;;;;;;;6.87;3.40;;;;;;;;;;10450928;28;20139;-74
2023/01/18 17:05:28;;;;;;;6.53;2.63;;;;;;;;;;10462740;28;20131;-75
2023/01/18 17:10:39;;;;;;;4.33;2.20;;;;;;;;;;10473215;28;20143;-75
2023/01/18 17:21:06;;;;;;;4.20;2.03;;;;;;;;;;10481109;28;20106;-75
2023/01/18 17:26:17;;;;;;;2.83;1.90;;;;;;;;;;10478720;28;20048;-75
2023/01/18 17:31:23;;;;;;;4.53;2.60;;;;;;;;;;10459172;28;20036;-77
2023/01/18 17:36:32;;;;;;;2.43;1.70;;;;;;;;;;10474487;28;20109;-76
2023/01/18 17:41:49;;;;;;;2.83;1.53;;;;;;;;;;10469925;28;20052;-74
2023/01/18 17:47:04;;;;;;;4.33;2.33;;;;;;;;;;10487192;28;20055;-74
2023/01/18 17:52:08;;;;;;;3.67;2.07;;;;;;;;;;10469037;28;20052;-74
2023/01/18 17:57:17;;;;;;;5.23;2.33;;;;;;;;;;10480639;28;20070;-74
2023/01/18 18:02:46;;;;;;;5.10;2.67;;;;;;;;;;10478281;28;20040;-74
2023/01/18 18:07:51;;;;;;;6.97;2.63;;;;;;;;;;10465461;28;20132;-75
2023/01/18 18:12:56;;;;;;;4.18;2.33;;;;;;;;;;10471506;28;20048;-75
2023/01/18 18:18:06;;;;;;;5.93;2.33;;;;;;;;;;10480265;28;20047;-75
2023/01/18 18:23:23;;;;;;;6.03;2.90;;;;;;;;;;10477139;28;20041;-75
2023/01/18 18:28:28;;;;;;;7.73;3.27;;;;;;;;;;10479843;28;20049;-76
2023/01/18 18:33:33;;;;;;;6.43;2.83;;;;;;;;;;10476367;28;20045;-74
2023/01/18 18:38:51;;;;;;;10.10;3.30;;;;;;;;;;10463693;28;20140;-79
2023/01/18 18:44:00;;;;;;;6.53;3.10;;;;;;;;;;10476803;28;20120;-80
2023/01/18 18:49:05;;;;;;;7.65;3.45;;;;;;;;;;10487539;28;20532;-78
2023/01/18 18:54:15;;;;;;;7.97;3.93;;;;;;;;;;10464485;28;20057;-79
2023/01/18 18:59:20;;;;;;;5.77;2.93;;;;;;;;;;10483733;28;20119;-79
2023/01/18 19:04:41;;;;;;;7.53;3.60;;;;;;;;;;10480865;28;20131;-79
2023/01/18 19:09:48;;;;;;;8.63;3.50;;;;;;;;;;10482221;28;20118;-79
2023/01/18 19:14:51;;;;;;;6.43;3.37;;;;;;;;;;10471016;28;20393;-79
2023/01/18 19:19:56;;;;;;;5.57;2.70;;;;;;;;;;10483838;28;20085;-79
2023/01/18 19:25:08;;;;;;;8.57;3.70;;;;;;;;;;10494050;28;20050;-78
2023/01/18 19:30:18;;;;;;;8.33;4.17;;;;;;;;;;10482269;28;20072;-79
2023/01/18 19:35:26;;;;;;;5.83;3.47;;;;;;;;;;10480308;28;20055;-78
2023/01/18 19:40:33;;;;;;;13.30;4.03;;;;;;;;;;10477135;28;20520;-79
2023/01/18 19:45:37;;;;;;;10.23;4.90;;;;;;;;;;10466567;28;20374;-79
2023/01/18 19:50:42;;;;;;;4.63;2.27;;;;;;;;;;10470068;28;20049;-78
2023/01/18 19:55:54;;;;;;;8.50;3.60;;;;;;;;;;10471728;28;20036;-79
2023/01/18 20:01:09;;;;;;;5.50;2.97;;;;;;;;;;10462117;28;20167;-79
2023/01/18 20:06:14;;;;;;;8.30;3.50;;;;;;;;;;10473576;28;20530;-79
2023/01/18 20:11:20;;;;;;;3.60;2.20;;;;;;;;;;10475676;28;20052;-80
2023/01/18 20:16:23;;;;;;;8.83;4.10;;;;;;;;;;10474608;28;20072;-78
2023/01/18 20:21:26;;;;;;;8.55;3.80;;;;;;;;;;10478170;28;20102;-75
2023/01/18 20:26:33;;;;;;;8.33;4.00;;;;;;;;;;10469657;28;20064;-75
2023/01/18 20:31:44;;;;;;;;;;;;;;;;;;10466535;28;20310;-74
2023/01/18 20:36:52;;;;;;;10.70;3.63;;;;;;;;;;10470168;28;20125;-75
2023/01/18 20:42:02;;;;;;;16.53;5.30;;;;;;;;;;10475052;28;20037;-75
2023/01/18 20:47:08;;;;;;;13.60;5.27;;;;;;;;;;10496621;28;20366;-75
2023/01/18 20:52:13;;;;;;;13.03;5.50;;;;;;;;;;10472446;28;20107;-75
2023/01/18 20:57:18;;;;;;;10.97;4.70;;;;;;;;;;10471517;28;20605;-74
2023/01/18 21:02:25;;;;;;;11.60;5.13;;;;;;;;;;10484497;28;20044;-74
2023/01/18 21:07:32;;;;;;;13.13;5.67;;;;;;;;;;10451567;28;20044;-74
2023/01/18 21:12:45;;;;;;;9.37;4.13;;;;;;;;;;10464393;28;20473;-75
2023/01/18 21:17:55;;;;;;;13.75;5.03;;;;;;;;;;10480560;28;20128;-75
2023/01/18 21:23:00;;;;;;;10.30;3.77;;;;;;;;;;10479885;28;20032;-77
2023/01/18 21:28:15;;;;;;;8.70;3.63;;;;;;;;;;10468208;28;20056;-76
2023/01/18 21:33:25;;;;;;;11.70;4.07;;;;;;;;;;10480630;28;20083;-76
2023/01/18 21:38:30;;;;;;;11.40;4.97;;;;;;;;;;10479664;28;20302;-76
2023/01/18 21:54:53;;;;;;;9.87;4.40;;;;;;;;;;10480974;28;20792;-75
2023/01/18 22:00:13;;;;;;;5.60;2.73;;;;;;;;;;10461717;28;21752;-75
2023/01/18 22:05:19;;;;;;;15.03;4.80;;;;;;;;;;10459104;28;20093;-75
2023/01/18 22:15:48;;;;;;;12.03;4.67;;;;;;;;;;10482299;28;20047;-77
2023/01/18 22:20:56;;;;;;;9.83;4.70;;;;;;;;;;10477969;28;20284;-74
2023/01/18 22:26:00;;;;;;;14.17;5.57;;;;;;;;;;10473536;28;20501;-74
2023/01/18 22:31:11;;;;;;;9.32;5.00;;;;;;;;;;10463678;28;20044;-74
2023/01/18 22:36:29;;;;;;;9.23;3.97;;;;;;;;;;10462594;28;20368;-74
2023/01/18 22:41:35;;;;;;;18.73;7.63;;;;;;;;;;10476797;28;20363;-76
2023/01/18 22:46:43;;;;;;;21.23;8.17;;;;;;;;;;10479106;28;20390;-74
2023/01/18 22:51:52;;;;;;;16.83;6.23;;;;;;;;;;10455726;28;20091;-74
2023/01/18 22:56:59;;;;;;;8.80;3.33;;;;;;;;;;10459623;28;20123;-75
2023/01/18 23:02:21;;;;;;;22.77;8.70;;;;;;;;;;10458159;28;20041;-75
2023/01/18 23:07:31;;;;;;;17.90;6.28;;;;;;;;;;10474337;28;20135;-77
2023/01/18 23:12:39;;;;;;;17.07;6.73;;;;;;;;;;10464047;28;20103;-74
2023/01/18 23:17:50;;;;;;;13.63;5.73;;;;;;;;;;10474694;28;20130;-74
2023/01/18 23:22:59;;;;;;;12.67;5.23;;;;;;;;;;10471060;28;20493;-75
2023/01/18 23:28:09;;;;;;;14.97;6.67;;;;;;;;;;10465859;28;20048;-76
2023/01/18 23:33:14;;;;;;;13.03;6.13;;;;;;;;;;10459273;28;20047;-75
2023/01/18 23:38:20;;;;;;;18.93;6.67;;;;;;;;;;10470407;28;20045;-73
2023/01/18 23:54:15;;;;;;;11.47;4.77;;;;;;;;;;10458928;28;20052;-74
2023/01/18 23:59:21;;;;;;;14.00;5.07;;;;;;;;;;10476203;28;20040;-75
